Time;durP1;ratioP1;P1;durP2;ratioP2;P2;SDS_P1;SDS_P2;PMS_P1;PMS_P2;Temp;Humidity;BMP_temperature;BMP_pressure;BME280_temperature;BME280_humidity;BME280_pressure;Samples;Min_cycle;Max_cycle;Signal;HPM_P1;HPM_P2
2020/12/08 00:00:10;;;;;;;43.20;22.92;;;;;;;0.51;100.00;94585.13;1040433;28;20048;-73
2020/12/08 00:00:41;;;;;;;45.60;23.38;;;;;;;0.50;100.00;94579.06;1028233;28;20562;-73
2020/12/08 00:01:12;;;;;;;44.10;23.65;;;;;;;0.48;100.00;94581.00;1044475;28;20028;-73
2020/12/08 00:01:44;;;;;;;41.13;23.42;;;;;;;0.50;100.00;94576.44;1036414;28;20022;-73
2020/12/08 00:02:15;;;;;;;44.85;22.85;;;;;;;0.51;100.00;94585.94;1036450;28;20085;-73
2020/12/08 00:02:47;;;;;;;39.83;22.33;;;;;;;0.51;100.00;94590.34;1040382;28;20470;-73
2020/12/08 00:03:17;;;;;;;47.13;25.50;;;;;;;0.38;100.00;94582.84;1032271;28;20018;-73
2020/12/08 00:03:48;;;;;;;44.13;22.83;;;;;;;0.33;100.00;94582.47;1032426;28;20463;-73
2020/12/08 00:04:19;;;;;;;45.28;24.40;;;;;;;0.31;100.00;94574.78;1036233;28;20435;-73
2020/12/08 00:04:50;;;;;;;45.15;23.92;;;;;;;0.33;100.00;94582.47;1032256;28;20022;-73
2020/12/08 00:05:21;;;;;;;42.83;23.13;;;;;;;0.40;100.00;94582.72;1032317;28;20026;-73
2020/12/08 00:05:52;;;;;;;39.50;22.88;;;;;;;0.46;100.00;94588.16;1032368;28;20022;-73
2020/12/08 00:06:23;;;;;;;37.38;20.90;;;;;;;0.25;100.00;94553.69;1040646;28;20325;-73
2020/12/08 00:06:53;;;;;;;38.97;22.17;;;;;;;0.39;100.00;94581.88;1040357;28;20029;-74
2020/12/08 00:07:25;;;;;;;40.70;22.35;;;;;;;0.44;100.00;94590.09;1036568;28;20018;-73
2020/12/08 00:07:55;;;;;;;40.90;23.42;;;;;;;0.41;100.00;94590.41;1040583;28;20161;-73
2020/12/08 00:08:26;;;;;;;40.13;22.42;;;;;;;0.46;100.00;94593.38;1035658;28;20552;-73
2020/12/08 00:08:57;;;;;;;42.83;23.58;;;;;;;0.45;100.00;94585.69;1043963;28;20057;-72
2020/12/08 00:09:28;;;;;;;41.50;23.52;;;;;;;0.40;100.00;94593.16;1040433;28;20024;-73
2020/12/08 00:09:59;;;;;;;42.13;23.27;;;;;;;0.42;100.00;94583.38;1040348;28;20493;-73
2020/12/08 00:10:31;;;;;;;42.10;22.70;;;;;;;0.41;100.00;94587.78;1048668;28;20027;-73
2020/12/08 00:11:02;;;;;;;42.05;22.38;;;;;;;0.37;100.00;94584.66;1028136;28;20499;-73
2020/12/08 00:11:33;;;;;;;42.63;22.75;;;;;;;0.34;100.00;94587.53;1027869;28;20030;-73
2020/12/08 00:12:04;;;;;;;41.60;23.02;;;;;;;0.33;100.00;94582.47;1028350;28;20021;-73
2020/12/08 00:12:35;;;;;;;42.33;23.50;;;;;;;0.34;100.00;94586.72;1036374;28;20018;-73
2020/12/08 00:13:05;;;;;;;42.22;22.63;;;;;;;0.20;100.00;94561.94;1040172;28;20549;-73
2020/12/08 00:13:36;;;;;;;46.45;24.55;;;;;;;0.30;100.00;94583.59;1028314;28;20027;-73
2020/12/08 00:14:07;;;;;;;43.83;24.45;;;;;;;0.31;100.00;94585.22;1028202;28;20133;-73
2020/12/08 00:14:38;;;;;;;43.55;22.67;;;;;;;0.41;100.00;94581.75;1032298;28;20044;-73
2020/12/08 00:15:08;;;;;;;40.42;22.40;;;;;;;0.45;100.00;94586.50;1027974;28;20035;-73
2020/12/08 00:15:39;;;;;;;38.17;21.77;;;;;;;0.45;100.00;94585.69;1036495;28;20089;-73
2020/12/08 00:16:11;;;;;;;41.00;22.67;;;;;;;0.42;100.00;94581.59;1032427;28;20072;-73
2020/12/08 00:16:43;;;;;;;40.78;22.25;;;;;;;0.44;100.00;94584.06;1036286;28;20028;-73
2020/12/08 00:17:14;;;;;;;42.22;22.50;;;;;;;0.46;100.00;94580.31;1040311;28;20375;-73
2020/12/08 00:17:46;;;;;;;43.35;23.63;;;;;;;0.47;100.00;94584.59;1032222;28;20021;-73
2020/12/08 00:18:17;;;;;;;43.30;23.27;;;;;;;0.42;100.00;94576.38;1036500;28;20056;-72
2020/12/08 00:18:47;;;;;;;42.85;23.23;;;;;;;0.37;100.00;94576.81;1040219;28;20017;-73
2020/12/08 00:19:18;;;;;;;41.80;22.83;;;;;;;0.44;100.00;94582.28;1032224;28;20019;-73
2020/12/08 00:19:49;;;;;;;44.42;24.05;;;;;;;0.44;100.00;94574.44;1040492;28;20026;-73
2020/12/08 00:20:20;;;;;;;42.75;24.20;;;;;;;0.59;100.00;94577.34;1028236;28;20018;-73
2020/12/08 00:20:50;;;;;;;39.10;21.75;;;;;;;0.61;100.00;94577.19;1036179;28;20018;-73
2020/12/08 00:21:21;;;;;;;40.95;22.20;;;;;;;0.60;100.00;94579.00;1036302;28;20109;-72
2020/12/08 00:21:52;;;;;;;43.22;23.63;;;;;;;0.59;100.00;94576.53;1036287;28;20364;-74
2020/12/08 00:22:22;;;;;;;40.53;22.60;;;;;;;0.63;100.00;94575.25;1040414;28;20124;-73
2020/12/08 00:22:53;;;;;;;41.35;23.45;;;;;;;0.69;100.00;94574.66;1044424;28;20012;-73
2020/12/08 00:23:24;;;;;;;43.30;24.00;;;;;;;0.54;100.00;94548.22;1028154;28;20046;-73
2020/12/08 00:23:55;;;;;;;42.35;23.45;;;;;;;0.66;100.00;94559.28;1040401;28;20486;-73
2020/12/08 00:24:26;;;;;;;42.50;22.98;;;;;;;0.72;100.00;94571.75;1040457;28;20021;-73
2020/12/08 00:24:57;;;;;;;43.05;25.25;;;;;;;0.71;100.00;94575.31;1032197;28;20022;-73
2020/12/08 00:25:27;;;;;;;41.00;22.58;;;;;;;0.70;100.00;94576.31;1040402;28;20386;-73
2020/12/08 00:25:58;;;;;;;39.92;22.33;;;;;;;0.72;100.00;94583.03;1044529;28;20031;-73
2020/12/08 00:26:29;;;;;;;40.92;23.67;;;;;;;0.66;100.00;94572.34;1040387;28;20586;-73
2020/12/08 00:27:00;;;;;;;40.33;22.63;;;;;;;0.70;100.00;94582.34;1032117;28;20116;-73
2020/12/08 00:27:36;;;;;;;43.75;23.05;;;;;;;0.53;100.00;94570.94;1040536;28;20033;-73
2020/12/08 00:28:06;;;;;;;40.83;22.73;;;;;;;0.59;100.00;94582.56;1036331;28;20460;-73
2020/12/08 00:28:37;;;;;;;40.80;22.52;;;;;;;0.61;100.00;94579.81;1040351;28;20024;-73
2020/12/08 00:29:08;;;;;;;39.17;22.00;;;;;;;0.63;100.00;94580.47;1044445;28;20031;-73
2020/12/08 00:29:39;;;;;;;40.80;23.25;;;;;;;0.54;100.00;94584.78;1044478;28;20507;-73
2020/12/08 00:30:11;;;;;;;39.97;22.30;;;;;;;0.50;100.00;94583.47;1024435;28;20023;-73
2020/12/08 00:30:43;;;;;;;42.88;22.98;;;;;;;0.52;100.00;94577.13;1044363;28;20029;-73
2020/12/08 00:31:13;;;;;;;37.33;22.17;;;;;;;0.56;100.00;94582.88;1040260;28;20029;-73
2020/12/08 00:31:44;;;;;;;36.78;21.10;;;;;;;0.52;100.00;94566.69;1040400;28;20513;-73
2020/12/08 00:32:16;;;;;;;40.65;22.63;;;;;;;0.59;100.00;94574.72;1032283;28;20479;-72
2020/12/08 00:32:47;;;;;;;39.30;22.63;;;;;;;0.50;100.00;94573.00;1028175;28;20041;-73
2020/12/08 00:33:18;;;;;;;45.42;24.42;;;;;;;0.50;100.00;94573.81;1044375;28;20078;-73
2020/12/08 00:33:49;;;;;;;41.25;23.70;;;;;;;0.49;100.00;94580.03;1040391;28;20018;-73
2020/12/08 00:34:20;;;;;;;43.33;23.35;;;;;;;0.51;100.00;94572.06;1024280;29;20023;-73
2020/12/08 00:34:50;;;;;;;42.13;23.45;;;;;;;0.50;100.00;94573.81;1032234;28;20111;-73
2020/12/08 00:35:22;;;;;;;38.80;21.63;;;;;;;0.41;100.00;94571.31;1044501;28;20059;-72
2020/12/08 00:35:53;;;;;;;40.70;21.92;;;;;;;0.42;100.00;94571.16;1040371;28;20513;-73
2020/12/08 00:36:24;;;;;;;36.85;21.33;;;;;;;0.41;100.00;94574.72;1032161;28;20077;-73
2020/12/08 00:36:55;;;;;;;40.50;22.02;;;;;;;0.46;100.00;94576.91;1036088;28;20025;-73
2020/12/08 00:37:26;;;;;;;40.38;22.30;;;;;;;0.40;100.00;94572.25;1040462;28;20486;-73
2020/12/08 00:37:57;;;;;;;35.72;20.10;;;;;;;0.34;100.00;94563.25;1048650;28;20032;-73
2020/12/08 00:38:28;;;;;;;36.97;20.45;;;;;;;0.37;100.00;94568.16;1032296;28;20054;-72
2020/12/08 00:38:59;;;;;;;36.47;21.55;;;;;;;0.43;100.00;94574.59;1036091;28;20056;-73
2020/12/08 00:39:30;;;;;;;35.97;19.70;;;;;;;0.40;100.00;94573.09;1028277;28;20117;-73
2020/12/08 00:40:00;;;;;;;34.60;20.17;;;;;;;0.34;100.00;94564.03;1040294;28;20441;-73
2020/12/08 00:40:32;;;;;;;35.83;20.60;;;;;;;0.40;100.00;94570.50;1040294;28;20021;-73
2020/12/08 00:41:02;;;;;;;35.28;20.40;;;;;;;0.37;100.00;94557.72;1032050;28;20022;-73
2020/12/08 00:41:33;;;;;;;35.92;20.98;;;;;;;0.44;100.00;94574.44;1036352;28;20017;-73
2020/12/08 00:42:06;;;;;;;34.65;20.10;;;;;;;0.46;100.00;94582.94;1040361;28;20025;-73
2020/12/08 00:42:39;;;;;;;33.65;19.88;;;;;;;0.51;100.00;94582.50;1040315;28;20029;-73
2020/12/08 00:43:10;;;;;;;37.30;20.63;;;;;;;0.52;100.00;94582.38;1036082;28;20033;-73
2020/12/08 00:43:41;;;;;;;33.90;19.50;;;;;;;0.54;100.00;94582.19;1036268;28;20447;-72
2020/12/08 00:44:12;;;;;;;34.90;20.05;;;;;;;0.32;100.00;94554.72;1044320;28;20024;-73
2020/12/08 00:44:43;;;;;;;34.88;20.25;;;;;;;0.56;100.00;94583.69;1028144;28;20357;-73
2020/12/08 00:45:15;;;;;;;35.30;20.13;;;;;;;0.60;100.00;94581.59;1036113;28;20018;-73
2020/12/08 00:45:46;;;;;;;35.58;21.02;;;;;;;0.49;100.00;94585.25;1040364;28;20130;-73
2020/12/08 00:46:18;;;;;;;33.35;19.33;;;;;;;0.42;100.00;94572.94;1036245;28;20026;-73
2020/12/08 00:46:49;;;;;;;36.05;19.02;;;;;;;0.57;100.00;94587.13;1028163;28;20061;-73
2020/12/08 00:47:20;;;;;;;35.03;20.95;;;;;;;0.43;100.00;94579.81;1036168;28;20069;-73
2020/12/08 00:47:51;;;;;;;36.38;20.38;;;;;;;0.50;100.00;94571.22;1040350;28;20474;-73
2020/12/08 00:48:22;;;;;;;34.70;20.60;;;;;;;0.47;100.00;94571.53;1032183;28;20102;-73
2020/12/08 00:48:53;;;;;;;36.28;21.02;;;;;;;0.40;100.00;94567.03;1036109;28;20502;-73
2020/12/08 00:49:24;;;;;;;32.40;19.40;;;;;;;0.61;100.00;94590.25;1036258;28;20018;-73
2020/12/08 00:49:57;;;;;;;35.55;20.48;;;;;;;0.60;100.00;94591.25;1044497;28;20073;-72
2020/12/08 00:50:28;;;;;;;34.95;20.00;;;;;;;0.50;100.00;94579.06;1048534;28;20087;-73
2020/12/08 00:51:01;;;;;;;35.08;20.02;;;;;;;0.59;100.00;94582.56;1036030;28;20022;-73
2020/12/08 00:51:33;;;;;;;37.30;21.17;;;;;;;0.54;100.00;94574.34;1036203;28;20061;-74
2020/12/08 00:52:04;;;;;;;34.10;19.25;;;;;;;0.58;100.00;94578.31;1044405;28;20100;-73
2020/12/08 00:52:34;;;;;;;38.22;21.38;;;;;;;0.60;100.00;94581.59;1036161;28;20014;-73
2020/12/08 00:53:05;;;;;;;36.92;21.30;;;;;;;0.46;100.00;94569.06;1035929;28;20018;-73
2020/12/08 00:53:36;;;;;;;37.00;21.20;;;;;;;0.57;100.00;94589.72;1036243;28;20510;-72
2020/12/08 00:54:07;;;;;;;38.22;21.48;;;;;;;0.55;100.00;94592.50;1036124;28;20018;-72
2020/12/08 00:54:38;;;;;;;37.58;20.88;;;;;;;0.48;100.00;94590.63;1036145;28;20029;-72
2020/12/08 00:55:09;;;;;;;38.28;21.98;;;;;;;0.45;100.00;94589.13;1032056;28;20026;-73
2020/12/08 00:55:39;;;;;;;37.13;21.52;;;;;;;0.51;100.00;94593.75;1044322;28;20018;-72
2020/12/08 00:56:12;;;;;;;41.10;22.92;;;;;;;0.53;100.00;94583.97;1040273;28;20076;-72
2020/12/08 00:56:43;;;;;;;41.38;22.05;;;;;;;0.53;100.00;94583.97;1032131;28;20010;-73
2020/12/08 00:57:19;;;;;;;38.42;22.08;;;;;;;0.52;100.00;94586.75;1040142;28;20032;-72
2020/12/08 00:57:50;;;;;;;39.90;23.00;;;;;;;0.42;100.00;94575.53;1032170;28;20015;-72
2020/12/08 00:58:21;;;;;;;38.42;21.55;;;;;;;0.40;100.00;94569.66;1032126;28;20411;-72
2020/12/08 00:58:52;;;;;;;41.70;22.52;;;;;;;0.54;100.00;94595.25;1040188;28;20061;-73
2020/12/08 00:59:23;;;;;;;40.08;22.35;;;;;;;0.55;100.00;94592.50;1036291;28;20061;-72
2020/12/08 00:59:54;;;;;;;40.20;22.80;;;;;;;0.54;100.00;94585.63;1036128;28;20056;-72
2020/12/08 01:00:25;;;;;;;39.67;22.55;;;;;;;0.58;100.00;94586.16;1032139;28;20446;-72
2020/12/08 01:00:56;;;;;;;41.70;22.92;;;;;;;0.51;100.00;94591.16;1032016;28;20101;-73
2020/12/08 01:01:26;;;;;;;43.90;22.98;;;;;;;0.54;100.00;94595.25;1036184;28;20066;-72
2020/12/08 01:02:00;;;;;;;40.67;22.77;;;;;;;0.48;100.00;94591.44;1040344;28;20109;-72
2020/12/08 01:02:31;;;;;;;40.08;22.50;;;;;;;0.45;100.00;94594.34;1040065;28;20020;-72
2020/12/08 01:03:02;;;;;;;45.45;24.67;;;;;;;0.46;100.00;94597.78;1035987;28;20402;-72
2020/12/08 01:03:34;;;;;;;42.13;24.30;;;;;;;0.45;100.00;94601.38;1040156;28;20013;-72
2020/12/08 01:04:08;;;;;;;41.08;22.98;;;;;;;0.44;100.00;94592.72;1032093;28;20463;-72
2020/12/08 01:04:39;;;;;;;40.10;22.60;;;;;;;0.43;100.00;94595.47;1032070;28;20026;-73
2020/12/08 01:05:11;;;;;;;41.50;23.55;;;;;;;0.35;100.00;94585.78;1048318;28;20513;-72
2020/12/08 01:05:42;;;;;;;41.30;23.30;;;;;;;0.41;100.00;94595.63;1036146;28;20029;-72
2020/12/08 01:06:13;;;;;;;40.20;22.27;;;;;;;0.45;100.00;94586.50;1044308;28;20025;-72
2020/12/08 01:06:44;;;;;;;42.83;23.75;;;;;;;0.45;100.00;94586.50;1040096;28;20368;-73
2020/12/08 01:07:15;;;;;;;43.72;24.23;;;;;;;0.48;100.00;94580.19;1027992;28;20141;-73
2020/12/08 01:07:46;;;;;;;41.85;22.85;;;;;;;0.39;100.00;94581.88;1040248;28;20411;-72
2020/12/08 01:08:17;;;;;;;39.65;21.73;;;;;;;0.36;100.00;94585.59;1036057;28;20108;-72
2020/12/08 01:08:48;;;;;;;41.17;23.08;;;;;;;0.42;100.00;94588.59;1031932;28;20034;-72
2020/12/08 01:09:19;;;;;;;41.22;22.05;;;;;;;0.46;100.00;94584.75;1032061;28;20069;-72
2020/12/08 01:09:49;;;;;;;40.15;22.58;;;;;;;0.45;100.00;94586.50;1036132;28;20033;-72
2020/12/08 01:10:20;;;;;;;41.38;22.98;;;;;;;0.46;100.00;94584.75;1036057;28;20182;-72
2020/12/08 01:10:53;;;;;;;40.90;23.00;;;;;;;0.50;100.00;94584.28;1023917;28;20027;-73
2020/12/08 01:11:23;;;;;;;45.53;23.92;;;;;;;0.48;100.00;94574.97;1039872;28;20030;-73
2020/12/08 01:11:54;;;;;;;40.58;22.55;;;;;;;0.46;100.00;94588.16;1044262;28;20053;-72
2020/12/08 01:12:25;;;;;;;44.25;23.17;;;;;;;0.45;100.00;94586.50;1040159;28;20390;-72
2020/12/08 01:12:56;;;;;;;42.40;23.05;;;;;;;0.45;100.00;94576.06;1044181;28;20021;-72
2020/12/08 01:13:26;;;;;;;42.35;22.83;;;;;;;0.35;100.00;94575.34;1036015;28;20018;-72
2020/12/08 01:13:57;;;;;;;42.47;22.50;;;;;;;0.48;100.00;94582.78;1040264;28;20475;-72
2020/12/08 01:14:28;;;;;;;41.10;22.95;;;;;;;0.25;100.00;94553.69;1036092;28;20029;-72
2020/12/08 01:14:59;;;;;;;40.38;23.20;;;;;;;0.60;100.00;94583.41;1031810;28;20045;-72
2020/12/08 01:15:30;;;;;;;41.95;22.65;;;;;;;0.62;100.00;94581.47;1040145;28;20028;-72
2020/12/08 01:16:02;;;;;;;40.78;22.50;;;;;;;0.63;100.00;94573.47;1040245;28;20421;-72
2020/12/08 01:16:33;;;;;;;39.38;22.60;;;;;;;0.63;100.00;94580.47;1036125;28;20463;-72
2020/12/08 01:17:04;;;;;;;38.90;22.88;;;;;;;0.62;100.00;94584.06;1035964;28;20478;-72
2020/12/08 01:17:35;;;;;;;40.35;23.27;;;;;;;0.63;100.00;94580.47;1040159;28;20006;-72
2020/12/08 01:18:07;;;;;;;37.45;21.20;;;;;;;0.64;100.00;94582.13;1036069;28;20042;-72
2020/12/08 01:18:37;;;;;;;42.63;22.52;;;;;;;0.59;100.00;94571.31;1032025;28;20038;-72
2020/12/08 01:19:08;;;;;;;39.58;22.15;;;;;;;0.64;100.00;94580.31;1035889;28;20044;-72
2020/12/08 01:19:39;;;;;;;41.28;23.15;;;;;;;0.66;100.00;94577.56;1035931;28;20026;-72
2020/12/08 01:20:10;;;;;;;38.80;22.08;;;;;;;0.60;100.00;94578.19;1035879;28;20021;-72
2020/12/08 01:20:41;;;;;;;36.13;21.65;;;;;;;0.55;100.00;94581.22;1040176;28;20026;-73
2020/12/08 01:21:15;;;;;;;40.25;23.10;;;;;;;0.51;100.00;94580.72;1035918;28;20030;-73
2020/12/08 01:21:50;;;;;;;37.00;20.60;;;;;;;0.44;100.00;94558.78;1036066;28;20113;-72
2020/12/08 01:22:22;;;;;;;41.65;23.27;;;;;;;0.65;100.00;94583.78;1028034;28;20094;-72
2020/12/08 01:22:53;;;;;;;38.55;22.25;;;;;;;0.59;100.00;94582.56;1031837;28;20026;-73
2020/12/08 01:23:24;;;;;;;40.28;22.88;;;;;;;0.60;100.00;94586.00;1031961;28;20030;-72
2020/12/08 01:23:55;;;;;;;41.72;22.58;;;;;;;0.61;100.00;94585.88;1040162;28;20028;-72
2020/12/08 01:24:26;;;;;;;38.80;21.67;;;;;;;0.58;100.00;94580.94;1040027;28;20025;-73
2020/12/08 01:24:57;;;;;;;38.50;21.85;;;;;;;0.49;100.00;94582.66;1039951;28;20018;-72
2020/12/08 01:25:28;;;;;;;40.38;21.70;;;;;;;0.45;100.00;94581.28;1044334;28;20385;-72
2020/12/08 01:26:00;;;;;;;37.95;21.00;;;;;;;0.41;100.00;94586.97;1040106;28;20107;-72
2020/12/08 01:26:30;;;;;;;39.92;23.02;;;;;;;0.29;100.00;94568.88;1027937;28;20106;-72
2020/12/08 01:27:01;;;;;;;37.10;21.05;;;;;;;0.34;100.00;94573.69;1035958;28;20026;-73
2020/12/08 01:27:33;;;;;;;37.10;21.77;;;;;;;0.49;100.00;94587.06;1031966;28;20025;-72
2020/12/08 01:28:05;;;;;;;35.45;20.50;;;;;;;0.39;100.00;94578.47;1036109;28;20108;-73
2020/12/08 01:28:36;;;;;;;37.45;21.05;;;;;;;0.46;100.00;94577.72;1035999;28;20014;-73
2020/12/08 01:29:06;;;;;;;35.67;20.35;;;;;;;0.53;100.00;94583.16;1035946;28;20018;-72
2020/12/08 01:29:37;;;;;;;39.53;21.58;;;;;;;0.56;100.00;94581.09;1036053;28;20022;-72
2020/12/08 01:30:08;;;;;;;38.25;20.85;;;;;;;0.56;100.00;94582.88;1044225;28;20104;-72
2020/12/08 01:30:39;;;;;;;38.70;21.17;;;;;;;0.63;100.00;94588.31;1032030;28;20324;-73
2020/12/08 01:31:10;;;;;;;38.78;22.55;;;;;;;0.44;100.00;94573.63;1035878;28;20026;-72
2020/12/08 01:31:40;;;;;;;37.35;22.35;;;;;;;0.51;100.00;94590.34;1048355;28;20108;-73
2020/12/08 01:32:11;;;;;;;39.15;21.88;;;;;;;0.49;100.00;94592.28;1036113;28;20517;-72
2020/12/08 01:32:42;;;;;;;39.92;22.08;;;;;;;0.46;100.00;94590.78;1031910;28;20379;-72
2020/12/08 01:33:13;;;;;;;39.17;21.77;;;;;;;0.44;100.00;94587.50;1035760;28;20022;-73
2020/12/08 01:33:44;;;;;;;38.38;21.38;;;;;;;0.37;100.00;94581.22;1040142;28;20473;-72
2020/12/08 01:34:14;;;;;;;37.90;21.75;;;;;;;0.43;100.00;94588.44;1031921;28;20121;-72
2020/12/08 01:34:45;;;;;;;39.92;21.48;;;;;;;0.49;100.00;94593.09;1031903;28;20022;-73
2020/12/08 01:35:17;;;;;;;36.38;21.70;;;;;;;0.44;100.00;94590.09;1031900;28;20029;-72
2020/12/08 01:35:49;;;;;;;40.15;22.67;;;;;;;0.46;100.00;94587.34;1031984;28;20055;-72
2020/12/08 01:36:20;;;;;;;38.58;21.05;;;;;;;0.45;100.00;94583.91;1035968;28;20368;-73
2020/12/08 01:36:51;;;;;;;39.92;21.80;;;;;;;0.46;100.00;94584.75;1027795;28;20023;-73
2020/12/08 01:37:22;;;;;;;39.05;22.13;;;;;;;0.49;100.00;94587.06;1035949;28;20423;-73
2020/12/08 01:37:54;;;;;;;36.70;20.42;;;;;;;0.53;100.00;94591.81;1028011;28;20463;-72
2020/12/08 01:38:25;;;;;;;37.55;20.83;;;;;;;0.43;100.00;94572.78;1032080;28;20025;-73
2020/12/08 01:38:56;;;;;;;41.42;21.65;;;;;;;0.45;100.00;94588.31;1035922;28;20057;-72
2020/12/08 01:39:26;;;;;;;36.67;21.02;;;;;;;0.42;100.00;94591.19;1044281;28;20461;-73
2020/12/08 01:39:57;;;;;;;38.70;21.42;;;;;;;0.40;100.00;94593.16;1036156;28;20026;-73
2020/12/08 01:40:28;;;;;;;38.55;22.17;;;;;;;0.39;100.00;94589.72;1040063;28;20075;-72
2020/12/08 01:40:58;;;;;;;38.35;21.23;;;;;;;0.36;100.00;94590.00;1044256;28;20104;-72
2020/12/08 01:41:29;;;;;;;40.35;21.88;;;;;;;0.32;100.00;94586.88;1031888;28;20030;-73
2020/12/08 01:42:00;;;;;;;38.97;21.23;;;;;;;0.32;100.00;94586.88;1040165;28;20112;-74
2020/12/08 01:42:31;;;;;;;40.92;22.70;;;;;;;0.24;100.00;94571.13;1027995;28;20026;-74
2020/12/08 01:43:02;;;;;;;37.08;20.70;;;;;;;0.31;100.00;94593.06;1044128;28;20017;-73
2020/12/08 01:43:32;;;;;;;36.92;21.45;;;;;;;0.29;100.00;94586.34;1048222;28;20449;-74
2020/12/08 01:44:03;;;;;;;35.13;20.75;;;;;;;0.26;100.00;94584.03;1031944;28;20501;-74
2020/12/08 01:44:34;;;;;;;34.33;19.83;;;;;;;0.32;100.00;94589.50;1044117;28;20017;-73
2020/12/08 01:45:05;;;;;;;37.58;21.30;;;;;;;0.36;100.00;94588.22;1027867;28;20521;-73
2020/12/08 01:45:36;;;;;;;35.60;20.17;;;;;;;0.32;100.00;94588.69;1036034;28;20033;-74
2020/12/08 01:46:07;;;;;;;35.65;19.25;;;;;;;0.32;100.00;94580.84;1040100;28;20455;-74
2020/12/08 01:46:38;;;;;;;38.97;21.45;;;;;;;0.37;100.00;94591.66;1036172;28;20025;-74
2020/12/08 01:47:09;;;;;;;38.58;21.33;;;;;;;0.34;100.00;94591.94;1035958;28;20041;-73
2020/12/08 01:47:41;;;;;;;37.53;21.38;;;;;;;0.31;100.00;94587.84;1040071;28;20544;-74
2020/12/08 01:48:14;;;;;;;38.50;20.88;;;;;;;0.36;100.00;94587.41;1045162;28;20031;-73
2020/12/08 01:48:45;;;;;;;38.70;20.88;;;;;;;0.33;100.00;94572.03;1030336;28;20114;-72
2020/12/08 01:49:17;;;;;;;34.42;20.42;;;;;;;0.36;100.00;94587.41;1037090;28;20057;-73
2020/12/08 01:49:48;;;;;;;37.20;21.33;;;;;;;0.28;100.00;94582.94;1036037;28;20029;-73
2020/12/08 01:50:19;;;;;;;36.47;21.10;;;;;;;0.35;100.00;94583.97;1028088;28;20562;-73
2020/12/08 01:50:50;;;;;;;33.45;18.83;;;;;;;0.37;100.00;94583.84;1031853;28;20065;-73
2020/12/08 01:51:22;;;;;;;37.85;20.92;;;;;;;0.39;100.00;94588.91;1040228;28;20032;-73
2020/12/08 01:51:52;;;;;;;35.97;20.52;;;;;;;0.32;100.00;94591.28;1040260;28;20026;-74
2020/12/08 01:52:23;;;;;;;40.47;21.08;;;;;;;0.30;100.00;94583.59;1044460;28;20446;-73
2020/12/08 01:52:54;;;;;;;39.42;21.85;;;;;;;0.34;100.00;94586.72;1040090;28;20037;-73
2020/12/08 01:53:25;;;;;;;36.85;20.00;;;;;;;0.32;100.00;94575.63;1035859;28;20038;-74
2020/12/08 01:53:56;;;;;;;38.63;20.45;;;;;;;0.34;100.00;94587.53;1036211;28;20021;-73
2020/12/08 01:54:26;;;;;;;37.08;21.02;;;;;;;0.30;100.00;94583.59;1027906;28;20033;-73
2020/12/08 01:54:57;;;;;;;38.80;21.20;;;;;;;0.27;100.00;94577.84;1035814;28;20100;-73
2020/12/08 01:55:29;;;;;;;36.45;20.65;;;;;;;0.22;100.00;94580.06;1027909;28;20098;-73
2020/12/08 01:55:59;;;;;;;34.13;19.77;;;;;;;0.24;100.00;94580.75;1036143;28;20108;-74
2020/12/08 01:56:30;;;;;;;33.78;19.30;;;;;;;0.22;100.00;94591.34;1040083;28;20053;-73
2020/12/08 01:57:01;;;;;;;37.80;20.42;;;;;;;0.14;100.00;94568.59;1035805;28;20120;-74
2020/12/08 01:57:33;;;;;;;34.58;19.73;;;;;;;0.28;100.00;94590.75;1036014;28;20056;-74
2020/12/08 01:58:14;;;;;;;37.67;20.02;;;;;;;0.28;100.00;94582.94;1028004;28;20081;-74
2020/12/08 01:58:46;;;;;;;33.90;19.17;;;;;;;0.31;100.00;94581.78;1039880;28;20167;-73
2020/12/08 01:59:17;;;;;;;37.40;19.63;;;;;;;0.30;100.00;94583.59;1040061;28;20032;-73
2020/12/08 01:59:47;;;;;;;35.40;19.27;;;;;;;0.23;100.00;94571.25;1035829;28;20456;-74
2020/12/08 02:00:18;;;;;;;35.10;18.67;;;;;;;0.26;100.00;94584.88;1040010;28;20028;-74
2020/12/08 02:00:49;;;;;;;36.90;20.13;;;;;;;0.27;100.00;94588.28;1031679;28;20022;-73
2020/12/08 02:01:20;;;;;;;37.25;20.23;;;;;;;0.21;100.00;94583.66;1048440;28;20070;-74
2020/12/08 02:01:52;;;;;;;39.85;21.38;;;;;;;0.24;100.00;94583.34;1040004;28;20491;-73
2020/12/08 02:02:24;;;;;;;36.88;19.55;;;;;;;0.24;100.00;94585.97;1044282;28;20021;-74
2020/12/08 02:02:55;;;;;;;36.15;19.70;;;;;;;0.25;100.00;94583.22;1035736;28;20018;-73
2020/12/08 02:03:26;;;;;;;38.17;20.38;;;;;;;0.23;100.00;94581.69;1036014;28;20037;-74
2020/12/08 02:03:57;;;;;;;33.70;18.50;;;;;;;0.18;100.00;94587.38;1035879;28;20022;-73
2020/12/08 02:04:28;;;;;;;31.45;18.60;;;;;;;0.12;100.00;94591.41;1039973;28;20466;-73
2020/12/08 02:05:00;;;;;;;33.85;19.00;;;;;;;0.17;100.00;94588.34;1040059;28;20018;-73
2020/12/08 02:05:31;;;;;;;35.00;18.85;;;;;;;0.16;100.00;94587.53;1048179;28;20066;-74
2020/12/08 02:06:02;;;;;;;33.60;19.05;;;;;;;0.24;100.00;94593.81;1032074;28;20431;-74
2020/12/08 02:06:33;;;;;;;36.97;19.55;;;;;;;0.22;100.00;94591.34;1032161;28;20022;-74
2020/12/08 02:07:04;;;;;;;35.35;18.73;;;;;;;0.18;100.00;94590.81;1040625;28;20483;-73
2020/12/08 02:07:42;;;;;;;37.08;18.70;;;;;;;0.13;100.00;94595.63;1036607;28;20029;-74
2020/12/08 02:08:13;;;;;;;34.70;18.33;;;;;;;0.15;100.00;94588.47;1040729;28;20021;-74
2020/12/08 02:08:44;;;;;;;37.33;19.05;;;;;;;0.10;100.00;94593.31;1036615;28;20018;-72
2020/12/08 02:09:15;;;;;;;33.08;18.98;;;;;;;-0.02;100.00;94592.72;1040651;28;20045;-73
2020/12/08 02:09:46;;;;;;;35.15;19.02;;;;;;;-0.08;100.00;94592.47;1028533;28;20031;-74
2020/12/08 02:10:17;;;;;;;32.78;18.85;;;;;;;-0.03;100.00;94587.63;1036515;28;20113;-73
2020/12/08 02:10:48;;;;;;;37.33;18.98;;;;;;;-0.02;100.00;94589.25;1040693;28;20044;-73
2020/12/08 02:11:19;;;;;;;33.55;17.77;;;;;;;-0.08;100.00;94588.06;1032160;28;20113;-73
2020/12/08 02:11:50;;;;;;;34.42;18.55;;;;;;;0.02;100.00;94589.78;1048817;28;20070;-74
2020/12/08 02:12:21;;;;;;;35.55;19.27;;;;;;;0.10;100.00;94595.09;1036755;28;20536;-74
2020/12/08 02:12:51;;;;;;;36.25;19.27;;;;;;;-0.01;100.00;94580.47;1044714;28;20013;-73
2020/12/08 02:13:23;;;;;;;36.40;18.75;;;;;;;-0.02;100.00;94595.31;1032476;28;20403;-74
2020/12/08 02:13:53;;;;;;;35.05;19.15;;;;;;;0.00;100.00;94584.75;1032686;28;20382;-74
2020/12/08 02:14:24;;;;;;;37.67;18.70;;;;;;;-0.01;100.00;94586.50;1045044;28;20041;-74
2020/12/08 02:14:55;;;;;;;34.75;18.55;;;;;;;0.08;100.00;94590.03;1032340;28;20553;-74
2020/12/08 02:15:32;;;;;;;36.60;18.98;;;;;;;-0.02;100.00;94590.09;1044746;28;20041;-74
2020/12/08 02:16:03;;;;;;;35.88;18.75;;;;;;;-0.06;100.00;94585.31;1036628;28;20029;-74
2020/12/08 02:16:34;;;;;;;33.90;18.45;;;;;;;0.02;100.00;94582.81;1036628;28;20110;-73
2020/12/08 02:17:05;;;;;;;37.08;19.27;;;;;;;0.08;100.00;94584.81;1032489;28;20033;-73
2020/12/08 02:17:35;;;;;;;34.80;18.88;;;;;;;0.11;100.00;94583.72;1036553;28;20022;-74
2020/12/08 02:18:06;;;;;;;37.90;19.55;;;;;;;0.07;100.00;94588.41;1028435;28;20260;-74
2020/12/08 02:18:37;;;;;;;34.72;18.33;;;;;;;0.04;100.00;94586.09;1036568;28;20025;-74
2020/12/08 02:19:08;;;;;;;37.80;19.65;;;;;;;0.04;100.00;94582.66;1044765;28;20500;-73
2020/12/08 02:19:39;;;;;;;38.38;18.92;;;;;;;0.04;100.00;94586.09;1032362;28;20022;-74
2020/12/08 02:20:10;;;;;;;35.85;18.65;;;;;;;0.02;100.00;94581.97;1036464;28;20092;-73
2020/12/08 02:20:41;;;;;;;34.75;18.15;;;;;;;0.03;100.00;94581.81;1048760;28;20430;-74
2020/12/08 02:21:12;;;;;;;37.30;18.92;;;;;;;-0.02;100.00;94584.88;1040592;28;20545;-73
2020/12/08 02:21:43;;;;;;;35.58;19.23;;;;;;;-0.07;100.00;94581.03;1036777;28;20022;-74
2020/12/08 02:22:14;;;;;;;36.78;19.77;;;;;;;-0.06;100.00;94587.91;1036422;28;20022;-73
2020/12/08 02:22:45;;;;;;;35.45;18.40;;;;;;;0.02;100.00;94585.41;1044888;28;20051;-73
2020/12/08 02:23:15;;;;;;;36.75;20.48;;;;;;;0.01;100.00;94581.16;1036591;28;20030;-73